sensor_id;sensor_type;location;lat;lon;timestamp;pressure;altitude;pressure_sealevel;temperature;humidity
44359;BME280;30077;52.474;13.326;2023-02-16T00:03:40;101695.97;;;2.58;100.00
44359;BME280;30077;52.474;13.326;2023-02-16T00:08:44;101704.75;;;2.54;100.00
44359;BME280;30077;52.474;13.326;2023-02-16T00:13:45;101698.56;;;2.54;100.00
44359;BME280;30077;52.474;13.326;2023-02-16T00:18:51;101697.72;;;2.52;100.00
44359;BME280;30077;52.474;13.326;2023-02-16T00:23:52;101700.31;;;2.47;100.00
44359;BME280;30077;52.474;13.326;2023-02-16T00:28:52;101699.44;;;2.45;100.00
44359;BME280;30077;52.474;13.326;2023-02-16T00:33:53;101701.19;;;2.45;100.00
44359;BME280;30077;52.474;13.326;2023-02-16T00:38:53;101688.88;;;2.40;100.00
44359;BME280;30077;52.474;13.326;2023-02-16T00:43:54;101697.63;;;2.38;100.00
44359;BME280;30077;52.474;13.326;2023-02-16T00:48:54;101693.22;;;2.35;100.00
44359;BME280;30077;52.474;13.326;2023-02-16T00:53:54;101696.72;;;2.31;100.00
44359;BME280;30077;52.474;13.326;2023-02-16T00:58:54;101695.81;;;2.26;100.00
44359;BME280;30077;52.474;13.326;2023-02-16T01:03:55;101700.16;;;2.21;100.00
44359;BME280;30077;52.474;13.326;2023-02-16T01:09:17;101695.75;;;2.17;100.00
44359;BME280;30077;52.474;13.326;2023-02-16T01:14:36;101696.59;;;2.13;100.00
44359;BME280;30077;52.474;13.326;2023-02-16T01:19:36;101679.94;;;2.08;100.00
44359;BME280;30077;52.474;13.326;2023-02-16T01:24:36;101680.78;;;2.07;100.00
44359;BME280;30077;52.474;13.326;2023-02-16T01:29:37;101688.66;;;2.07;100.00
44359;BME280;30077;52.474;13.326;2023-02-16T01:34:37;101683.41;;;2.04;100.00
44359;BME280;30077;52.474;13.326;2023-02-16T01:39:37;101673.78;;;2.07;100.00
44359;BME280;30077;52.474;13.326;2023-02-16T01:49:43;101673.78;;;2.09;100.00
44359;BME280;30077;52.474;13.326;2023-02-16T01:54:51;101676.41;;;2.09;100.00
44359;BME280;30077;52.474;13.326;2023-02-16T02:04:53;101670.19;;;1.98;100.00
44359;BME280;30077;52.474;13.326;2023-02-16T02:10:23;101664.03;;;1.94;100.00
44359;BME280;30077;52.474;13.326;2023-02-16T02:15:25;101664.91;;;1.95;100.00
44359;BME280;30077;52.474;13.326;2023-02-16T02:31:03;101657.84;;;1.83;100.00
44359;BME280;30077;52.474;13.326;2023-02-16T02:41:17;101647.25;;;1.77;100.00
44359;BME280;30077;52.474;13.326;2023-02-16T02:46:21;101651.66;;;1.81;100.00
44359;BME280;30077;52.474;13.326;2023-02-16T02:51:23;101644.63;;;1.77;100.00
44359;BME280;30077;52.474;13.326;2023-02-16T02:56:30;101637.63;;;1.79;100.00
44359;BME280;30077;52.474;13.326;2023-02-16T03:01:49;101636.72;;;1.75;100.00
44359;BME280;30077;52.474;13.326;2023-02-16T03:06:51;101634.94;;;1.74;100.00
44359;BME280;30077;52.474;13.326;2023-02-16T03:11:52;101638.47;;;1.73;100.00
44359;BME280;30077;52.474;13.326;2023-02-16T03:17:14;101631.44;;;1.72;100.00
44359;BME280;30077;52.474;13.326;2023-02-16T03:22:34;101627.94;;;1.73;100.00
44359;BME280;30077;52.474;13.326;2023-02-16T03:27:53;101631.44;;;1.72;100.00
44359;BME280;30077;52.474;13.326;2023-02-16T03:33:13;101638.44;;;1.70;100.00
44359;BME280;30077;52.474;13.326;2023-02-16T03:38:14;101634.06;;;1.71;100.00
44359;BME280;30077;52.474;13.326;2023-02-16T03:43:14;101639.31;;;1.67;100.00
44359;BME280;30077;52.474;13.326;2023-02-16T03:48:14;101633.19;;;1.70;100.00
44359;BME280;30077;52.474;13.326;2023-02-16T03:53:14;101627.06;;;1.71;100.00
44359;BME280;30077;52.474;13.326;2023-02-16T03:58:16;101622.66;;;1.70;100.00
44359;BME280;30077;52.474;13.326;2023-02-16T04:03:16;101627.88;;;1.67;100.00
44359;BME280;30077;52.474;13.326;2023-02-16T04:08:17;101632.28;;;1.66;100.00
44359;BME280;30077;52.474;13.326;2023-02-16T04:13:17;101634.91;;;1.65;100.00
44359;BME280;30077;52.474;13.326;2023-02-16T04:18:17;101641.03;;;1.64;100.00
44359;BME280;30077;52.474;13.326;2023-02-16T04:23:18;101634.88;;;1.62;100.00
44359;BME280;30077;52.474;13.326;2023-02-16T04:28:18;101631.38;;;1.60;100.00
44359;BME280;30077;52.474;13.326;2023-02-16T04:33:18;101627.84;;;1.58;100.00
44359;BME280;30077;52.474;13.326;2023-02-16T04:38:18;101627.84;;;1.56;100.00
44359;BME280;30077;52.474;13.326;2023-02-16T04:43:18;101633.00;;;1.49;100.00
44359;BME280;30077;52.474;13.326;2023-02-16T04:48:18;101622.50;;;1.46;100.00
44359;BME280;30077;52.474;13.326;2023-02-16T04:53:18;101624.22;;;1.43;100.00
44359;BME280;30077;52.474;13.326;2023-02-16T04:58:19;101622.44;;;1.39;100.00
44359;BME280;30077;52.474;13.326;2023-02-16T05:03:19;101618.91;;;1.37;100.00
44359;BME280;30077;52.474;13.326;2023-02-16T05:08:19;101621.50;;;1.33;100.00
44359;BME280;30077;52.474;13.326;2023-02-16T05:13:19;101631.16;;;1.32;100.00
44359;BME280;30077;52.474;13.326;2023-02-16T05:18:38;101632.88;;;1.30;100.00
44359;BME280;30077;52.474;13.326;2023-02-16T05:23:38;101645.13;;;1.28;100.00
44359;BME280;30077;52.474;13.326;2023-02-16T05:28:39;101631.97;;;1.24;100.00
44359;BME280;30077;52.474;13.326;2023-02-16T05:33:39;101640.69;;;1.21;100.00
44359;BME280;30077;52.474;13.326;2023-02-16T05:38:39;101626.66;;;1.19;100.00
44359;BME280;30077;52.474;13.326;2023-02-16T05:43:39;101625.81;;;1.20;100.00
44359;BME280;30077;52.474;13.326;2023-02-16T05:48:39;101627.53;;;1.18;100.00
44359;BME280;30077;52.474;13.326;2023-02-16T05:53:40;101631.88;;;1.16;100.00
44359;BME280;30077;52.474;13.326;2023-02-16T05:58:40;101645.00;;;1.13;100.00
44359;BME280;30077;52.474;13.326;2023-02-16T06:03:40;101645.88;;;1.13;100.00
44359;BME280;30077;52.474;13.326;2023-02-16T06:08:41;101652.84;;;1.11;100.00
44359;BME280;30077;52.474;13.326;2023-02-16T06:13:41;101637.97;;;1.12;100.00
44359;BME280;30077;52.474;13.326;2023-02-16T06:18:41;101638.84;;;1.11;100.00
44359;BME280;30077;52.474;13.326;2023-02-16T06:23:41;101644.97;;;1.11;100.00
44359;BME280;30077;52.474;13.326;2023-02-16T06:28:41;101646.75;;;1.14;100.00
44359;BME280;30077;52.474;13.326;2023-02-16T06:33:42;101648.50;;;1.15;100.00
44359;BME280;30077;52.474;13.326;2023-02-16T06:38:42;101648.53;;;1.18;100.00
44359;BME280;30077;52.474;13.326;2023-02-16T06:43:42;101653.84;;;1.21;100.00
44359;BME280;30077;52.474;13.326;2023-02-16T06:48:43;101659.13;;;1.24;100.00
44359;BME280;30077;52.474;13.326;2023-02-16T06:53:43;101660.03;;;1.29;100.00
44359;BME280;30077;52.474;13.326;2023-02-16T06:58:43;101657.50;;;1.38;100.00
44359;BME280;30077;52.474;13.326;2023-02-16T07:03:43;101661.13;;;1.53;100.00
44359;BME280;30077;52.474;13.326;2023-02-16T07:08:43;101669.97;;;1.67;100.00
44359;BME280;30077;52.474;13.326;2023-02-16T07:13:44;101657.72;;;1.71;100.00
44359;BME280;30077;52.474;13.326;2023-02-16T07:18:44;101652.53;;;1.75;100.00
44359;BME280;30077;52.474;13.326;2023-02-16T07:23:45;101659.59;;;1.88;100.00
44359;BME280;30077;52.474;13.326;2023-02-16T07:28:45;101660.56;;;2.00;100.00
44359;BME280;30077;52.474;13.326;2023-02-16T07:33:45;101650.97;;;2.14;100.00
44359;BME280;30077;52.474;13.326;2023-02-16T07:38:46;101652.78;;;2.24;100.00
44359;BME280;30077;52.474;13.326;2023-02-16T07:43:46;101644.09;;;2.47;100.00
44359;BME280;30077;52.474;13.326;2023-02-16T07:48:47;101650.31;;;2.59;100.00
44359;BME280;30077;52.474;13.326;2023-02-16T07:53:47;101654.78;;;2.86;100.00
44359;BME280;30077;52.474;13.326;2023-02-16T07:58:52;101659.25;;;3.09;100.00
44359;BME280;30077;52.474;13.326;2023-02-16T08:03:53;101660.13;;;3.17;100.00
44359;BME280;30077;52.474;13.326;2023-02-16T08:08:53;101649.59;;;3.20;100.00
44359;BME280;30077;52.474;13.326;2023-02-16T08:13:53;101656.63;;;3.24;100.00
44359;BME280;30077;52.474;13.326;2023-02-16T08:18:56;101664.53;;;3.29;100.00
44359;BME280;30077;52.474;13.326;2023-02-16T08:23:58;101675.94;;;3.26;100.00
44359;BME280;30077;52.474;13.326;2023-02-16T08:28:58;101681.25;;;3.35;100.00
44359;BME280;30077;52.474;13.326;2023-02-16T08:33:58;101660.16;;;3.57;100.00
44359;BME280;30077;52.474;13.326;2023-02-16T08:39:16;101661.88;;;3.76;100.00
44359;BME280;30077;52.474;13.326;2023-02-16T08:44:18;101664.47;;;3.99;100.00
44359;BME280;30077;52.474;13.326;2023-02-16T08:49:19;101651.22;;;4.22;100.00
44359;BME280;30077;52.474;13.326;2023-02-16T08:54:21;101652.03;;;4.41;100.00
44359;BME280;30077;52.474;13.326;2023-02-16T08:59:24;101648.41;;;4.64;100.00
44359;BME280;30077;52.474;13.326;2023-02-16T09:04:25;101639.47;;;4.86;100.00
44359;BME280;30077;52.474;13.326;2023-02-16T09:09:26;101647.28;;;5.09;100.00
44359;BME280;30077;52.474;13.326;2023-02-16T09:14:26;101633.00;;;5.31;99.59
44359;BME280;30077;52.474;13.326;2023-02-16T09:19:26;101645.09;;;5.63;96.84
44359;BME280;30077;52.474;13.326;2023-02-16T09:24:27;101648.41;;;5.84;94.55
44359;BME280;30077;52.474;13.326;2023-02-16T09:29:27;101645.53;;;6.11;93.24
44359;BME280;30077;52.474;13.326;2023-02-16T09:34:27;101643.50;;;6.32;91.70
44359;BME280;30077;52.474;13.326;2023-02-16T09:39:28;101635.25;;;6.56;90.81
44359;BME280;30077;52.474;13.326;2023-02-16T09:49:37;101639.84;;;7.07;87.84
44359;BME280;30077;52.474;13.326;2023-02-16T09:54:46;101629.81;;;7.26;86.68
44359;BME280;30077;52.474;13.326;2023-02-16T09:59:54;101633.13;;;7.41;85.57
44359;BME280;30077;52.474;13.326;2023-02-16T10:05:12;101631.72;;;7.71;85.31
44359;BME280;30077;52.474;13.326;2023-02-16T10:10:23;101628.69;;;7.91;82.54
44359;BME280;30077;52.474;13.326;2023-02-16T10:15:25;101634.59;;;8.07;81.76
44359;BME280;30077;52.474;13.326;2023-02-16T10:20:30;101634.50;;;8.12;79.24
44359;BME280;30077;52.474;13.326;2023-02-16T10:25:47;101645.19;;;8.10;79.31
44359;BME280;30077;52.474;13.326;2023-02-16T10:30:55;101645.13;;;8.13;78.95
44359;BME280;30077;52.474;13.326;2023-02-16T10:36:02;101640.63;;;8.17;78.11
44359;BME280;30077;52.474;13.326;2023-02-16T10:41:30;101627.09;;;8.28;77.50
44359;BME280;30077;52.474;13.326;2023-02-16T10:46:35;101621.78;;;8.71;75.32
44359;BME280;30077;52.474;13.326;2023-02-16T10:51:37;101624.94;;;8.90;73.68
44359;BME280;30077;52.474;13.326;2023-02-16T10:56:41;101614.34;;;8.87;73.05
44359;BME280;30077;52.474;13.326;2023-02-16T11:01:45;101608.97;;;8.88;73.12
44359;BME280;30077;52.474;13.326;2023-02-16T11:06:59;101608.09;;;8.88;73.78
44359;BME280;30077;52.474;13.326;2023-02-16T11:12:01;101604.25;;;9.01;72.52
44359;BME280;30077;52.474;13.326;2023-02-16T11:17:03;101602.50;;;9.00;72.39
44359;BME280;30077;52.474;13.326;2023-02-16T11:22:03;101600.25;;;8.83;73.27
44359;BME280;30077;52.474;13.326;2023-02-16T11:27:16;101605.41;;;8.89;72.75
44359;BME280;30077;52.474;13.326;2023-02-16T11:32:18;101590.84;;;9.06;72.68
44359;BME280;30077;52.474;13.326;2023-02-16T11:42:24;101593.72;;;9.34;71.56
44359;BME280;30077;52.474;13.326;2023-02-16T11:47:29;101576.34;;;9.53;71.10
44359;BME280;30077;52.474;13.326;2023-02-16T11:52:30;101573.94;;;9.77;69.57
44359;BME280;30077;52.474;13.326;2023-02-16T11:57:32;101561.28;;;9.85;68.94
44359;BME280;30077;52.474;13.326;2023-02-16T12:02:42;101552.00;;;9.98;68.75
44359;BME280;30077;52.474;13.326;2023-02-16T12:08:11;101558.00;;;10.06;68.21
44359;BME280;30077;52.474;13.326;2023-02-16T12:13:33;101563.03;;;10.17;67.48
44359;BME280;30077;52.474;13.326;2023-02-16T12:18:45;101557.72;;;10.16;67.69
44359;BME280;30077;52.474;13.326;2023-02-16T12:29:16;101540.50;;;10.29;68.07
44359;BME280;30077;52.474;13.326;2023-02-16T12:39:43;101539.75;;;10.53;66.54
44359;BME280;30077;52.474;13.326;2023-02-16T12:44:47;101539.34;;;10.66;66.37
44359;BME280;30077;52.474;13.326;2023-02-16T12:49:53;101534.19;;;10.59;66.86
44359;BME280;30077;52.474;13.326;2023-02-16T12:54:56;101535.63;;;10.43;66.75
44359;BME280;30077;52.474;13.326;2023-02-16T12:59:59;101525.19;;;10.35;66.66
44359;BME280;30077;52.474;13.326;2023-02-16T13:05:03;101520.63;;;10.39;67.41
44359;BME280;30077;52.474;13.326;2023-02-16T13:15:18;101510.41;;;10.53;67.18
44359;BME280;30077;52.474;13.326;2023-02-16T13:20:20;101511.63;;;10.71;66.50
44359;BME280;30077;52.474;13.326;2023-02-16T13:30:40;101506.56;;;10.90;66.14
44359;BME280;30077;52.474;13.326;2023-02-16T13:35:46;101491.41;;;10.91;65.90
44359;BME280;30077;52.474;13.326;2023-02-16T13:41:06;101492.09;;;10.96;65.88
44359;BME280;30077;52.474;13.326;2023-02-16T13:46:32;101504.59;;;10.95;66.01
44359;BME280;30077;52.474;13.326;2023-02-16T13:51:41;101493.91;;;10.95;65.94
44359;BME280;30077;52.474;13.326;2023-02-16T13:56:42;101507.16;;;10.98;65.92
44359;BME280;30077;52.474;13.326;2023-02-16T14:01:42;101511.31;;;11.07;65.25
44359;BME280;30077;52.474;13.326;2023-02-16T14:06:43;101497.81;;;11.12;71.15
44359;BME280;30077;52.474;13.326;2023-02-16T14:16:49;101494.31;;;11.09;66.26
44359;BME280;30077;52.474;13.326;2023-02-16T14:21:49;101501.47;;;11.09;66.51
44359;BME280;30077;52.474;13.326;2023-02-16T14:26:51;101493.50;;;11.07;67.00
44359;BME280;30077;52.474;13.326;2023-02-16T14:31:54;101493.50;;;11.07;67.07
44359;BME280;30077;52.474;13.326;2023-02-16T14:37:09;101489.06;;;11.06;67.15
44359;BME280;30077;52.474;13.326;2023-02-16T14:42:14;101491.75;;;11.06;67.13
44359;BME280;30077;52.474;13.326;2023-02-16T14:47:33;101490.22;;;10.99;67.70
44359;BME280;30077;52.474;13.326;2023-02-16T14:52:51;101487.13;;;10.85;68.53
44359;BME280;30077;52.474;13.326;2023-02-16T14:58:03;101490.28;;;10.70;69.21
44359;BME280;30077;52.474;13.326;2023-02-16T15:03:21;101495.88;;;10.62;69.83
44359;BME280;30077;52.474;13.326;2023-02-16T15:08:23;101492.25;;;10.65;69.92
44359;BME280;30077;52.474;13.326;2023-02-16T15:13:25;101491.13;;;10.72;69.87
44359;BME280;30077;52.474;13.326;2023-02-16T15:18:27;101486.75;;;10.69;70.05
44359;BME280;30077;52.474;13.326;2023-02-16T15:23:29;101497.38;;;10.71;69.99
44359;BME280;30077;52.474;13.326;2023-02-16T15:28:33;101483.38;;;10.64;70.70
44359;BME280;30077;52.474;13.326;2023-02-16T15:33:36;101475.75;;;10.52;71.37
44359;BME280;30077;52.474;13.326;2023-02-16T15:38:37;101479.78;;;10.37;71.78
44359;BME280;30077;52.474;13.326;2023-02-16T15:48:41;101466.25;;;10.13;72.95
44359;BME280;30077;52.474;13.326;2023-02-16T15:53:55;101459.53;;;10.00;73.81
44359;BME280;30077;52.474;13.326;2023-02-16T15:58:57;101464.56;;;9.80;74.88
44359;BME280;30077;52.474;13.326;2023-02-16T16:03:59;101456.06;;;9.67;75.72
44359;BME280;30077;52.474;13.326;2023-02-16T16:09:00;101454.66;;;9.54;76.49
44359;BME280;30077;52.474;13.326;2023-02-16T16:14:01;101447.06;;;9.40;76.56
44359;BME280;30077;52.474;13.326;2023-02-16T16:19:07;101444.91;;;9.22;77.72
44359;BME280;30077;52.474;13.326;2023-02-16T16:24:13;101444.56;;;9.01;78.69
44359;BME280;30077;52.474;13.326;2023-02-16T16:29:29;101436.09;;;8.85;79.82
44359;BME280;30077;52.474;13.326;2023-02-16T16:34:33;101439.88;;;8.77;80.34
44359;BME280;30077;52.474;13.326;2023-02-16T16:39:34;101425.91;;;8.67;81.22
44359;BME280;30077;52.474;13.326;2023-02-16T16:44:37;101428.03;;;8.54;81.83
44359;BME280;30077;52.474;13.326;2023-02-16T16:49:45;101430.94;;;8.43;82.52
44359;BME280;30077;52.474;13.326;2023-02-16T16:54:47;101428.44;;;8.36;83.61
44359;BME280;30077;52.474;13.326;2023-02-16T16:59:47;101417.06;;;8.29;84.06
44359;BME280;30077;52.474;13.326;2023-02-16T17:04:48;101413.63;;;8.24;84.60
44359;BME280;30077;52.474;13.326;2023-02-16T17:09:48;101412.75;;;8.24;85.11
44359;BME280;30077;52.474;13.326;2023-02-16T17:14:48;101408.31;;;8.24;85.69
44359;BME280;30077;52.474;13.326;2023-02-16T17:19:48;101418.84;;;8.29;86.09
44359;BME280;30077;52.474;13.326;2023-02-16T17:24:48;101422.25;;;8.34;86.02
44359;BME280;30077;52.474;13.326;2023-02-16T17:29:48;101428.41;;;8.39;85.88
44359;BME280;30077;52.474;13.326;2023-02-16T17:34:49;101424.81;;;8.40;86.28
44359;BME280;30077;52.474;13.326;2023-02-16T17:39:49;101430.06;;;8.43;86.49
44359;BME280;30077;52.474;13.326;2023-02-16T17:44:49;101428.22;;;8.45;86.72
44359;BME280;30077;52.474;13.326;2023-02-16T17:49:49;101435.22;;;8.49;86.55
44359;BME280;30077;52.474;13.326;2023-02-16T17:54:49;101448.50;;;8.49;86.55
44359;BME280;30077;52.474;13.326;2023-02-16T17:59:50;101449.38;;;8.51;86.68
44359;BME280;30077;52.474;13.326;2023-02-16T18:04:50;101446.66;;;8.53;86.89
44359;BME280;30077;52.474;13.326;2023-02-16T18:09:50;101439.66;;;8.49;87.33
44359;BME280;30077;52.474;13.326;2023-02-16T18:14:50;101438.88;;;8.45;87.55
44359;BME280;30077;52.474;13.326;2023-02-16T18:19:50;101433.72;;;8.39;88.01
44359;BME280;30077;52.474;13.326;2023-02-16T18:24:51;101437.28;;;8.35;88.55
44359;BME280;30077;52.474;13.326;2023-02-16T18:29:51;101446.16;;;8.35;88.82
44359;BME280;30077;52.474;13.326;2023-02-16T18:34:51;101447.03;;;8.36;88.57
44359;BME280;30077;52.474;13.326;2023-02-16T18:39:51;101436.38;;;8.37;88.37
44359;BME280;30077;52.474;13.326;2023-02-16T18:44:51;101428.44;;;8.34;88.31
44359;BME280;30077;52.474;13.326;2023-02-16T18:49:51;101427.66;;;8.31;88.43
44359;BME280;30077;52.474;13.326;2023-02-16T18:54:52;101430.31;;;8.31;88.01
44359;BME280;30077;52.474;13.326;2023-02-16T18:59:52;101429.50;;;8.27;88.17
44359;BME280;30077;52.474;13.326;2023-02-16T19:04:52;101431.28;;;8.27;88.05
44359;BME280;30077;52.474;13.326;2023-02-16T19:09:53;101427.69;;;8.29;88.06
44359;BME280;30077;52.474;13.326;2023-02-16T19:14:53;101409.91;;;8.31;87.85
44359;BME280;30077;52.474;13.326;2023-02-16T19:19:54;101424.09;;;8.32;87.67
44359;BME280;30077;52.474;13.326;2023-02-16T19:24:54;101425.97;;;8.28;87.78
44359;BME280;30077;52.474;13.326;2023-02-16T19:29:55;101423.31;;;8.27;87.57
44359;BME280;30077;52.474;13.326;2023-02-16T19:34:55;101425.09;;;8.26;87.47
44359;BME280;30077;52.474;13.326;2023-02-16T19:39:55;101427.69;;;8.29;87.03
44359;BME280;30077;52.474;13.326;2023-02-16T19:44:55;101421.59;;;8.24;87.41
44359;BME280;30077;52.474;13.326;2023-02-16T19:49:55;101418.06;;;8.24;87.44
44359;BME280;30077;52.474;13.326;2023-02-16T19:54:56;101428.69;;;8.24;87.02
44359;BME280;30077;52.474;13.326;2023-02-16T19:59:56;101414.59;;;8.22;87.45
44359;BME280;30077;52.474;13.326;2023-02-16T20:04:56;101420.78;;;8.22;87.21
44359;BME280;30077;52.474;13.326;2023-02-16T20:09:56;101426.03;;;8.24;87.16
44359;BME280;30077;52.474;13.326;2023-02-16T20:14:56;101432.28;;;8.23;87.06
44359;BME280;30077;52.474;13.326;2023-02-16T20:19:57;101419.06;;;8.19;87.17
44359;BME280;30077;52.474;13.326;2023-02-16T20:24:58;101420.84;;;8.19;87.36
44359;BME280;30077;52.474;13.326;2023-02-16T20:30:00;101412.75;;;8.24;86.98
44359;BME280;30077;52.474;13.326;2023-02-16T20:35:05;101407.44;;;8.24;86.81
44359;BME280;30077;52.474;13.326;2023-02-16T20:40:06;101396.84;;;8.22;87.45
44359;BME280;30077;52.474;13.326;2023-02-16T20:45:06;101395.13;;;8.19;89.17
44359;BME280;30077;52.474;13.326;2023-02-16T20:50:07;101398.78;;;8.15;90.67
44359;BME280;30077;52.474;13.326;2023-02-16T20:55:07;101399.94;;;8.04;94.75
44359;BME280;30077;52.474;13.326;2023-02-16T21:00:10;101395.72;;;7.93;98.20
44359;BME280;30077;52.474;13.326;2023-02-16T21:05:12;101388.81;;;7.86;99.33
44359;BME280;30077;52.474;13.326;2023-02-16T21:10:13;101376.47;;;7.84;100.00
44359;BME280;30077;52.474;13.326;2023-02-16T21:15:13;101372.09;;;7.81;100.00
44359;BME280;30077;52.474;13.326;2023-02-16T21:20:14;101373.84;;;7.82;100.00
44359;BME280;30077;52.474;13.326;2023-02-16T21:25:14;101373.03;;;7.79;100.00
44359;BME280;30077;52.474;13.326;2023-02-16T21:30:14;101365.94;;;7.81;100.00
44359;BME280;30077;52.474;13.326;2023-02-16T21:35:14;101377.34;;;7.84;100.00
44359;BME280;30077;52.474;13.326;2023-02-16T21:40:14;101363.03;;;7.90;100.00
44359;BME280;30077;52.474;13.326;2023-02-16T21:45:33;101363.97;;;7.89;100.00
44359;BME280;30077;52.474;13.326;2023-02-16T21:50:35;101360.53;;;7.84;100.00
44359;BME280;30077;52.474;13.326;2023-02-16T21:55:36;101348.19;;;7.81;100.00
44359;BME280;30077;52.474;13.326;2023-02-16T22:00:55;101333.19;;;7.79;100.00
44359;BME280;30077;52.474;13.326;2023-02-16T22:05:59;101328.88;;;7.75;100.00
44359;BME280;30077;52.474;13.326;2023-02-16T22:11:03;101322.69;;;7.72;100.00
44359;BME280;30077;52.474;13.326;2023-02-16T22:16:14;101327.19;;;7.70;100.00
44359;BME280;30077;52.474;13.326;2023-02-16T22:21:15;101322.78;;;7.69;100.00
44359;BME280;30077;52.474;13.326;2023-02-16T22:26:20;101318.44;;;7.65;100.00
44359;BME280;30077;52.474;13.326;2023-02-16T22:31:22;101321.16;;;7.62;100.00
44359;BME280;30077;52.474;13.326;2023-02-16T22:36:22;101313.41;;;7.53;100.00
44359;BME280;30077;52.474;13.326;2023-02-16T22:41:23;101307.25;;;7.51;100.00
44359;BME280;30077;52.474;13.326;2023-02-16T22:46:23;101313.41;;;7.53;100.00
44359;BME280;30077;52.474;13.326;2023-02-16T22:51:24;101312.47;;;7.56;100.00
44359;BME280;30077;52.474;13.326;2023-02-16T22:56:26;101308.91;;;7.57;100.00
44359;BME280;30077;52.474;13.326;2023-02-16T23:01:28;101315.03;;;7.59;100.00
44359;BME280;30077;52.474;13.326;2023-02-16T23:06:31;101306.22;;;7.58;100.00
44359;BME280;30077;52.474;13.326;2023-02-16T23:11:31;101303.59;;;7.57;100.00
44359;BME280;30077;52.474;13.326;2023-02-16T23:16:32;101304.47;;;7.57;100.00
44359;BME280;30077;52.474;13.326;2023-02-16T23:21:32;101297.31;;;7.61;100.00
44359;BME280;30077;52.474;13.326;2023-02-16T23:26:32;101300.78;;;7.64;100.00
44359;BME280;30077;52.474;13.326;2023-02-16T23:31:33;101288.41;;;7.63;100.00
44359;BME280;30077;52.474;13.326;2023-02-16T23:36:36;101280.38;;;7.66;100.00
44359;BME280;30077;52.474;13.326;2023-02-16T23:41:36;101289.22;;;7.65;100.00
44359;BME280;30077;52.474;13.326;2023-02-16T23:46:36;101287.31;;;7.72;100.00
44359;BME280;30077;52.474;13.326;2023-02-16T23:51:38;101283.84;;;7.68;100.00
44359;BME280;30077;52.474;13.326;2023-02-16T23:56:38;101296.25;;;7.68;100.00
